< Typhoon 199018 1990 Season Typhoon 199020 >
Typhoon 199019 (FLO)
General InformationTrack Information on Google MapsDetailed Wind InformationList of All Images || NewsDisaster Info.ResourceGoogle EarthGE AnimationAtom FeedGeoJSON
Detalied Best Track (Time Zone = UTC)
Year Month Day Hour Lat. Long. Pressure (hPa) Wind (kt) Class Image
1990 9 12 00 10.8 148.7 1004 0 2 Image
1990 9 12 06 11.3 147.9 1002 0 2 Image
1990 9 12 12 12.4 147.1 1002 0 2 Image
1990 9 12 18 13.6 145.8 1000 0 2 Image
1990 9 13 00 14.5 144.4 998 35 3 Image
1990 9 13 06 15.3 143.5 996 40 3 Image
1990 9 13 12 15.9 142.3 996 40 3 Image
1990 9 13 18 16.5 141.4 994 40 3 Image
1990 9 14 00 17.3 140.5 990 45 3 Image
1990 9 14 06 18.0 139.4 985 50 4 Image
1990 9 14 12 18.7 138.2 980 55 4 Image
1990 9 14 18 19.5 136.9 975 60 4 Image
1990 9 15 00 20.2 135.5 970 65 5 Image
1990 9 15 06 21.0 134.6 965 70 5 Image
1990 9 15 12 21.7 133.5 960 75 5 Image
1990 9 15 18 22.3 132.4 950 80 5 Image
1990 9 16 00 22.7 131.5 935 90 5 Image
1990 9 16 06 23.3 130.7 920 100 5 Image
1990 9 16 12 23.7 129.9 905 105 5 Image
1990 9 16 18 24.2 129.4 895 115 5 Image
1990 9 17 00 24.9 129.1 890 120 5 Image
1990 9 17 06 25.5 128.9 890 120 5 Image
1990 9 17 12 26.1 129.0 895 115 5 Image
1990 9 17 18 26.7 129.2 900 110 5 Image
1990 9 18 00 27.6 129.7 905 105 5 Image
1990 9 18 06 28.5 130.1 915 100 5 Image
1990 9 18 12 29.4 131.0 920 100 5 Image
1990 9 18 18 30.2 131.4 925 95 5 Image
1990 9 19 00 31.2 132.2 935 90 5 Image
1990 9 19 06 32.3 133.8 940 85 5 Image
1990 9 19 12 33.8 135.7 950 80 5 Image
1990 9 19 18 35.9 137.6 980 50 4 Image
1990 9 20 00 38.5 140.5 984 45 3 Image
1990 9 20 06 40.0 145.0 992 0 6 Image
1990 9 20 12 41.0 150.0 988 0 6 Image
1990 9 20 18 43.0 155.0 988 0 6 Image
1990 9 21 00 45.0 160.0 984 0 6 Image
1990 9 21 06 46.0 166.0 984 0 6 Image
1990 9 21 12 46.0 170.0 980 0 6 Image
1990 9 21 18 46.0 174.0 980 0 6 Image
1990 9 22 00 47.0 179.0 976 0 6 Image
1990 9 22 06 48.0 181.0 976 0 6 Image
Japan Meteorological Agency Best Track Data | Correction Date : 1992-10-21
< Typhoon 199018 1990 Season Typhoon 199020 >

Help